sensor_id;sensor_type;location;lat;lon;timestamp;pressure;altitude;pressure_sealevel;temperature;humidity
22181;BME280;11256;50.830;12.834;2023-01-01T00:03:43;97607.34;;;14.85;65.01
22181;BME280;11256;50.830;12.834;2023-01-01T00:08:43;97596.06;;;14.78;64.79
22181;BME280;11256;50.830;12.834;2023-01-01T00:13:43;97609.28;;;14.84;64.67
22181;BME280;11256;50.830;12.834;2023-01-01T00:18:44;97618.91;;;14.82;65.08
22181;BME280;11256;50.830;12.834;2023-01-01T00:23:44;97619.19;;;14.80;63.84
22181;BME280;11256;50.830;12.834;2023-01-01T00:28:45;97621.22;;;14.75;64.28
22181;BME280;11256;50.830;12.834;2023-01-01T00:33:51;97621.13;;;14.80;64.45
22181;BME280;11256;50.830;12.834;2023-01-01T00:38:52;97621.13;;;14.80;64.49
22181;BME280;11256;50.830;12.834;2023-01-01T00:43:53;97631.22;;;14.79;64.28
22181;BME280;11256;50.830;12.834;2023-01-01T00:48:53;97616.09;;;14.73;63.84
22181;BME280;11256;50.830;12.834;2023-01-01T00:53:54;97629.94;;;14.77;64.24
22181;BME280;11256;50.830;12.834;2023-01-01T00:58:54;97638.13;;;14.77;64.11
22181;BME280;11256;50.830;12.834;2023-01-01T01:03:54;97616.16;;;14.60;64.29
22181;BME280;11256;50.830;12.834;2023-01-01T01:08:55;97639.34;;;14.71;63.90
22181;BME280;11256;50.830;12.834;2023-01-01T01:13:56;97646.31;;;14.77;64.09
22181;BME280;11256;50.830;12.834;2023-01-01T01:18:59;97654.91;;;14.70;63.85
22181;BME280;11256;50.830;12.834;2023-01-01T01:24:02;97647.97;;;14.51;63.15
22181;BME280;11256;50.830;12.834;2023-01-01T01:29:03;97665.03;;;14.56;63.78
22181;BME280;11256;50.830;12.834;2023-01-01T01:34:03;97672.69;;;14.68;63.96
22181;BME280;11256;50.830;12.834;2023-01-01T01:39:03;97668.47;;;14.62;64.29
22181;BME280;11256;50.830;12.834;2023-01-01T01:49:46;97669.06;;;14.59;64.02
22181;BME280;11256;50.830;12.834;2023-01-01T01:54:47;97677.66;;;14.66;64.00
22181;BME280;11256;50.830;12.834;2023-01-01T01:59:49;97686.44;;;14.63;63.82
22181;BME280;11256;50.830;12.834;2023-01-01T02:04:53;97669.06;;;14.59;63.90
22181;BME280;11256;50.830;12.834;2023-01-01T02:09:54;97654.56;;;14.50;63.97
22181;BME280;11256;50.830;12.834;2023-01-01T02:14:54;97670.00;;;14.54;63.76
22181;BME280;11256;50.830;12.834;2023-01-01T02:25:27;97670.09;;;14.49;63.98
22181;BME280;11256;50.830;12.834;2023-01-01T02:30:34;97673.63;;;14.50;63.89
22181;BME280;11256;50.830;12.834;2023-01-01T02:35:39;97667.66;;;14.48;63.58
22181;BME280;11256;50.830;12.834;2023-01-01T02:40:45;97669.06;;;14.45;62.92
22181;BME280;11256;50.830;12.834;2023-01-01T02:45:46;97654.13;;;14.43;63.19
22181;BME280;11256;50.830;12.834;2023-01-01T02:50:47;97658.59;;;14.39;63.52
22181;BME280;11256;50.830;12.834;2023-01-01T02:56:36;97658.59;;;14.39;63.64
22181;BME280;11256;50.830;12.834;2023-01-01T03:01:39;97648.31;;;14.36;63.39
22181;BME280;11256;50.830;12.834;2023-01-01T03:12:26;97666.38;;;14.32;64.01
22181;BME280;11256;50.830;12.834;2023-01-01T03:18:38;97662.03;;;14.31;63.89
22181;BME280;11256;50.830;12.834;2023-01-01T03:23:16;97658.81;;;14.29;63.85
22181;BME280;11256;50.830;12.834;2023-01-01T03:28:21;97655.19;;;14.20;63.74
22181;BME280;11256;50.830;12.834;2023-01-01T03:33:33;97662.47;;;14.24;63.81
22181;BME280;11256;50.830;12.834;2023-01-01T03:38:39;97645.47;;;14.14;63.77
22181;BME280;11256;50.830;12.834;2023-01-01T03:43:52;97648.91;;;14.06;63.80
22181;BME280;11256;50.830;12.834;2023-01-01T03:48:53;97659.19;;;14.09;63.81
22181;BME280;11256;50.830;12.834;2023-01-01T03:53:59;97671.69;;;14.10;63.81
22181;BME280;11256;50.830;12.834;2023-01-01T04:04:37;97678.88;;;14.06;64.01
22181;BME280;11256;50.830;12.834;2023-01-01T04:09:39;97673.09;;;13.94;63.87
22181;BME280;11256;50.830;12.834;2023-01-01T04:14:43;97687.75;;;13.98;63.93
22181;BME280;11256;50.830;12.834;2023-01-01T04:19:43;97697.34;;;13.95;64.16
22181;BME280;11256;50.830;12.834;2023-01-01T04:24:43;97680.38;;;13.85;64.27
22181;BME280;11256;50.830;12.834;2023-01-01T04:29:44;97676.66;;;13.81;64.36
22181;BME280;11256;50.830;12.834;2023-01-01T04:34:44;97701.75;;;13.91;64.22
22181;BME280;11256;50.830;12.834;2023-01-01T04:39:44;97702.19;;;13.85;64.21
22181;BME280;11256;50.830;12.834;2023-01-01T04:44:45;97681.78;;;13.69;64.23
22181;BME280;11256;50.830;12.834;2023-01-01T04:49:45;97690.44;;;13.71;64.22
22181;BME280;11256;50.830;12.834;2023-01-01T04:54:45;97703.56;;;13.69;64.17
22181;BME280;11256;50.830;12.834;2023-01-01T04:59:46;97710.63;;;13.70;64.39
22181;BME280;11256;50.830;12.834;2023-01-01T05:04:46;97705.75;;;13.67;64.54
22181;BME280;11256;50.830;12.834;2023-01-01T05:09:46;97700.31;;;13.67;64.67
22181;BME280;11256;50.830;12.834;2023-01-01T05:14:46;97689.63;;;13.57;64.58
22181;BME280;11256;50.830;12.834;2023-01-01T05:19:47;97708.59;;;13.62;64.85
22181;BME280;11256;50.830;12.834;2023-01-01T05:24:47;97701.72;;;13.51;64.69
22181;BME280;11256;50.830;12.834;2023-01-01T05:29:47;97722.31;;;13.57;64.64
22181;BME280;11256;50.830;12.834;2023-01-01T05:34:48;97717.44;;;13.54;64.48
22181;BME280;11256;50.830;12.834;2023-01-01T05:39:48;97713.09;;;13.53;64.66
22181;BME280;11256;50.830;12.834;2023-01-01T05:44:48;97717.03;;;13.47;64.61
22181;BME280;11256;50.830;12.834;2023-01-01T05:49:49;97710.13;;;13.36;64.32
22181;BME280;11256;50.830;12.834;2023-01-01T05:54:51;97721.66;;;13.46;64.68
22181;BME280;11256;50.830;12.834;2023-01-01T05:59:51;97712.78;;;13.41;64.61
22181;BME280;11256;50.830;12.834;2023-01-01T06:04:51;97732.75;;;13.50;64.30
22181;BME280;11256;50.830;12.834;2023-01-01T06:09:52;97725.47;;;13.45;64.43
22181;BME280;11256;50.830;12.834;2023-01-01T06:14:52;97733.34;;;13.47;64.63
22181;BME280;11256;50.830;12.834;2023-01-01T06:19:52;97730.72;;;13.42;64.63
22181;BME280;11256;50.830;12.834;2023-01-01T06:24:53;97730.22;;;13.40;64.63
22181;BME280;11256;50.830;12.834;2023-01-01T06:29:53;97726.88;;;13.43;64.48
22181;BME280;11256;50.830;12.834;2023-01-01T06:34:54;97730.72;;;13.42;64.75
22181;BME280;11256;50.830;12.834;2023-01-01T06:39:54;97731.28;;;13.39;64.92
22181;BME280;11256;50.830;12.834;2023-01-01T06:44:55;97736.44;;;13.40;64.77
22181;BME280;11256;50.830;12.834;2023-01-01T06:49:55;97748.75;;;13.38;64.89
22181;BME280;11256;50.830;12.834;2023-01-01T06:54:55;97735.81;;;13.30;65.17
22181;BME280;11256;50.830;12.834;2023-01-01T06:59:56;97753.84;;;13.26;65.12
22181;BME280;11256;50.830;12.834;2023-01-01T07:04:56;97753.91;;;13.21;65.42
22181;BME280;11256;50.830;12.834;2023-01-01T07:09:56;97772.38;;;13.24;65.24
22181;BME280;11256;50.830;12.834;2023-01-01T07:14:57;97763.91;;;13.25;65.31
22181;BME280;11256;50.830;12.834;2023-01-01T07:19:57;97753.41;;;13.19;65.37
22181;BME280;11256;50.830;12.834;2023-01-01T07:24:57;97768.56;;;13.25;65.53
22181;BME280;11256;50.830;12.834;2023-01-01T07:29:57;97770.75;;;13.23;65.55
22181;BME280;11256;50.830;12.834;2023-01-01T07:34:58;97791.94;;;13.26;65.77
22181;BME280;11256;50.830;12.834;2023-01-01T07:39:58;97782.88;;;13.30;65.97
22181;BME280;11256;50.830;12.834;2023-01-01T07:44:58;97812.53;;;13.32;65.99
22181;BME280;11256;50.830;12.834;2023-01-01T07:49:59;97829.28;;;13.39;65.53
22181;BME280;11256;50.830;12.834;2023-01-01T07:54:59;97829.06;;;13.35;65.33
22181;BME280;11256;50.830;12.834;2023-01-01T07:59:59;97841.22;;;13.43;65.39
22181;BME280;11256;50.830;12.834;2023-01-01T08:05:00;97840.03;;;13.49;65.18
22181;BME280;11256;50.830;12.834;2023-01-01T08:10:01;97853.59;;;13.54;64.60
22181;BME280;11256;50.830;12.834;2023-01-01T08:15:01;97866.47;;;13.48;65.16
22181;BME280;11256;50.830;12.834;2023-01-01T08:20:02;97869.91;;;13.54;65.16
22181;BME280;11256;50.830;12.834;2023-01-01T08:25:03;97862.34;;;13.51;65.26
22181;BME280;11256;50.830;12.834;2023-01-01T08:30:04;97861.53;;;13.69;65.05
22181;BME280;11256;50.830;12.834;2023-01-01T08:35:05;97859.91;;;13.68;64.47
22181;BME280;11256;50.830;12.834;2023-01-01T08:40:06;97867.31;;;13.81;64.59
22181;BME280;11256;50.830;12.834;2023-01-01T08:45:07;97883.22;;;13.92;64.32
22181;BME280;11256;50.830;12.834;2023-01-01T08:50:08;97888.19;;;14.04;64.33
22181;BME280;11256;50.830;12.834;2023-01-01T08:55:08;97904.56;;;14.22;64.12
22181;BME280;11256;50.830;12.834;2023-01-01T09:00:10;97910.03;;;14.36;63.24
22181;BME280;11256;50.830;12.834;2023-01-01T09:05:12;97903.56;;;14.32;63.26
22181;BME280;11256;50.830;12.834;2023-01-01T09:10:13;97921.38;;;14.43;63.25
22181;BME280;11256;50.830;12.834;2023-01-01T09:15:15;97936.84;;;14.47;62.99
22181;BME280;11256;50.830;12.834;2023-01-01T09:20:16;97929.47;;;14.48;63.66
22181;BME280;11256;50.830;12.834;2023-01-01T09:25:16;97937.56;;;14.53;62.62
22181;BME280;11256;50.830;12.834;2023-01-01T09:30:16;97941.41;;;14.52;62.49
22181;BME280;11256;50.830;12.834;2023-01-01T09:35:17;97949.91;;;14.64;63.27
22181;BME280;11256;50.830;12.834;2023-01-01T09:45:30;97932.34;;;14.70;62.02
22181;BME280;11256;50.830;12.834;2023-01-01T09:50:39;97940.66;;;14.92;62.47
22181;BME280;11256;50.830;12.834;2023-01-01T09:55:48;97957.47;;;14.99;61.21
22181;BME280;11256;50.830;12.834;2023-01-01T10:00:52;97960.50;;;15.11;61.52
22181;BME280;11256;50.830;12.834;2023-01-01T10:16:39;97967.13;;;15.37;61.39
22181;BME280;11256;50.830;12.834;2023-01-01T10:21:42;97974.09;;;15.43;61.47
22181;BME280;11256;50.830;12.834;2023-01-01T10:26:44;97954.88;;;15.48;61.01
22181;BME280;11256;50.830;12.834;2023-01-01T10:31:46;97945.44;;;15.54;61.75
22181;BME280;11256;50.830;12.834;2023-01-01T10:36:47;97951.00;;;15.62;61.23
22181;BME280;11256;50.830;12.834;2023-01-01T10:41:48;97944.31;;;15.55;61.86
22181;BME280;11256;50.830;12.834;2023-01-01T10:46:52;97956.84;;;15.69;61.56
22181;BME280;11256;50.830;12.834;2023-01-01T10:51:55;97944.97;;;15.74;61.54
22181;BME280;11256;50.830;12.834;2023-01-01T10:56:55;97937.56;;;15.88;59.96
22181;BME280;11256;50.830;12.834;2023-01-01T11:07:26;97951.03;;;16.20;60.72
22181;BME280;11256;50.830;12.834;2023-01-01T11:12:30;97950.31;;;16.50;60.39
22181;BME280;11256;50.830;12.834;2023-01-01T11:17:34;97942.97;;;16.59;58.50
22181;BME280;11256;50.830;12.834;2023-01-01T11:22:44;97935.25;;;16.61;59.67
22181;BME280;11256;50.830;12.834;2023-01-01T11:27:46;97925.53;;;16.77;59.17
22181;BME280;11256;50.830;12.834;2023-01-01T11:32:49;97934.00;;;16.89;58.91
22181;BME280;11256;50.830;12.834;2023-01-01T11:37:52;97929.66;;;16.96;57.91
22181;BME280;11256;50.830;12.834;2023-01-01T11:42:59;97931.47;;;17.01;58.47
22181;BME280;11256;50.830;12.834;2023-01-01T11:48:02;97929.72;;;17.05;58.35
22181;BME280;11256;50.830;12.834;2023-01-01T11:58:40;97908.72;;;17.00;56.75
22181;BME280;11256;50.830;12.834;2023-01-01T12:09:11;97917.78;;;17.01;56.46
22181;BME280;11256;50.830;12.834;2023-01-01T12:14:24;97902.78;;;16.98;57.04
22181;BME280;11256;50.830;12.834;2023-01-01T12:19:33;97892.00;;;17.02;57.45
22181;BME280;11256;50.830;12.834;2023-01-01T12:24:36;97903.47;;;17.12;56.65
22181;BME280;11256;50.830;12.834;2023-01-01T12:35:09;97893.94;;;17.10;56.49
22181;BME280;11256;50.830;12.834;2023-01-01T12:46:03;97894.25;;;17.00;56.22
22181;BME280;11256;50.830;12.834;2023-01-01T12:56:30;97874.44;;;17.03;56.17
22181;BME280;11256;50.830;12.834;2023-01-01T13:01:34;97846.25;;;16.94;55.94
22181;BME280;11256;50.830;12.834;2023-01-01T13:11:51;97846.53;;;16.92;56.37
22181;BME280;11256;50.830;12.834;2023-01-01T13:16:55;97869.09;;;16.98;56.81
22181;BME280;11256;50.830;12.834;2023-01-01T13:21:56;97858.81;;;16.95;56.26
22181;BME280;11256;50.830;12.834;2023-01-01T13:26:57;97863.75;;;16.93;56.42
22181;BME280;11256;50.830;12.834;2023-01-01T13:31:58;97871.84;;;16.98;56.90
22181;BME280;11256;50.830;12.834;2023-01-01T13:48:16;97880.97;;;16.85;55.42
22181;BME280;11256;50.830;12.834;2023-01-01T13:59:04;97890.59;;;16.74;56.31
22181;BME280;11256;50.830;12.834;2023-01-01T14:04:36;97920.41;;;16.75;55.57
22181;BME280;11256;50.830;12.834;2023-01-01T14:09:38;97924.88;;;16.71;55.72
22181;BME280;11256;50.830;12.834;2023-01-01T14:14:39;97924.69;;;16.68;55.15
22181;BME280;11256;50.830;12.834;2023-01-01T14:19:39;97932.84;;;16.59;56.03
22181;BME280;11256;50.830;12.834;2023-01-01T14:24:43;97933.34;;;16.39;55.45
22181;BME280;11256;50.830;12.834;2023-01-01T14:29:47;97921.31;;;16.27;55.36
22181;BME280;11256;50.830;12.834;2023-01-01T14:34:57;97937.50;;;16.37;56.16
22181;BME280;11256;50.830;12.834;2023-01-01T14:40:21;97944.50;;;16.29;55.51
22181;BME280;11256;50.830;12.834;2023-01-01T14:45:28;97953.78;;;16.20;55.61
22181;BME280;11256;50.830;12.834;2023-01-01T14:50:30;97961.78;;;16.16;56.57
22181;BME280;11256;50.830;12.834;2023-01-01T14:55:38;97959.00;;;16.08;56.79
22181;BME280;11256;50.830;12.834;2023-01-01T15:00:39;97938.47;;;15.97;56.87
22181;BME280;11256;50.830;12.834;2023-01-01T15:05:41;97943.22;;;15.91;56.92
22181;BME280;11256;50.830;12.834;2023-01-01T15:10:43;97951.66;;;15.81;56.46
22181;BME280;11256;50.830;12.834;2023-01-01T15:15:45;97983.56;;;15.86;57.17
22181;BME280;11256;50.830;12.834;2023-01-01T15:20:52;97988.00;;;15.82;57.12
22181;BME280;11256;50.830;12.834;2023-01-01T15:25:53;97952.81;;;15.53;57.32
22181;BME280;11256;50.830;12.834;2023-01-01T15:30:55;97983.97;;;15.66;57.96
22181;BME280;11256;50.830;12.834;2023-01-01T15:35:56;97994.19;;;15.60;57.98
22181;BME280;11256;50.830;12.834;2023-01-01T15:41:33;97997.34;;;15.54;58.39
22181;BME280;11256;50.830;12.834;2023-01-01T15:46:46;97983.41;;;15.42;58.78
22181;BME280;11256;50.830;12.834;2023-01-01T15:51:48;98003.00;;;15.44;58.93
22181;BME280;11256;50.830;12.834;2023-01-01T15:56:49;98019.50;;;15.39;59.19
22181;BME280;11256;50.830;12.834;2023-01-01T16:01:50;98011.47;;;15.29;59.36
22181;BME280;11256;50.830;12.834;2023-01-01T16:06:53;97998.72;;;15.24;59.37
22181;BME280;11256;50.830;12.834;2023-01-01T16:11:55;98008.25;;;15.27;59.53
22181;BME280;11256;50.830;12.834;2023-01-01T16:16:56;98007.03;;;15.19;59.26
22181;BME280;11256;50.830;12.834;2023-01-01T16:21:59;98014.91;;;15.21;59.21
22181;BME280;11256;50.830;12.834;2023-01-01T16:27:00;98004.09;;;15.16;59.38
22181;BME280;11256;50.830;12.834;2023-01-01T16:32:03;97996.28;;;15.09;59.43
22181;BME280;11256;50.830;12.834;2023-01-01T16:37:03;97992.75;;;15.09;59.36
22181;BME280;11256;50.830;12.834;2023-01-01T16:42:04;97995.06;;;15.02;59.37
22181;BME280;11256;50.830;12.834;2023-01-01T16:47:04;97991.63;;;14.96;59.43
22181;BME280;11256;50.830;12.834;2023-01-01T16:52:04;97973.00;;;14.85;59.42
22181;BME280;11256;50.830;12.834;2023-01-01T16:57:05;97983.13;;;14.84;59.58
22181;BME280;11256;50.830;12.834;2023-01-01T17:02:08;97983.28;;;14.74;59.87
22181;BME280;11256;50.830;12.834;2023-01-01T17:07:09;97993.38;;;14.74;60.07
22181;BME280;11256;50.830;12.834;2023-01-01T17:12:10;97979.03;;;14.68;60.03
22181;BME280;11256;50.830;12.834;2023-01-01T17:17:10;97976.59;;;14.67;60.25
22181;BME280;11256;50.830;12.834;2023-01-01T17:22:10;97975.16;;;14.56;60.38
22181;BME280;11256;50.830;12.834;2023-01-01T17:27:11;98000.75;;;14.60;60.54
22181;BME280;11256;50.830;12.834;2023-01-01T17:32:11;97963.31;;;14.47;60.55
22181;BME280;11256;50.830;12.834;2023-01-01T17:37:12;97997.56;;;14.53;60.73
22181;BME280;11256;50.830;12.834;2023-01-01T17:42:13;97988.75;;;14.42;60.70
22181;BME280;11256;50.830;12.834;2023-01-01T17:47:13;97990.16;;;14.40;61.12
22181;BME280;11256;50.830;12.834;2023-01-01T17:52:13;97983.25;;;14.29;61.32
22181;BME280;11256;50.830;12.834;2023-01-01T17:57:14;97986.53;;;14.26;61.55
22181;BME280;11256;50.830;12.834;2023-01-01T18:02:14;98000.72;;;14.28;61.61
22181;BME280;11256;50.830;12.834;2023-01-01T18:07:15;97997.53;;;14.21;61.98
22181;BME280;11256;50.830;12.834;2023-01-01T18:12:15;98002.19;;;14.20;62.00
22181;BME280;11256;50.830;12.834;2023-01-01T18:17:15;98012.25;;;14.20;62.05
22181;BME280;11256;50.830;12.834;2023-01-01T18:22:16;97993.31;;;14.10;62.21
22181;BME280;11256;50.830;12.834;2023-01-01T18:27:16;98009.06;;;14.13;62.30
22181;BME280;11256;50.830;12.834;2023-01-01T18:32:16;98000.16;;;14.07;62.35
22181;BME280;11256;50.830;12.834;2023-01-01T18:37:17;97994.03;;;13.97;62.16
22181;BME280;11256;50.830;12.834;2023-01-01T18:42:23;98006.56;;;13.98;62.35
22181;BME280;11256;50.830;12.834;2023-01-01T18:47:28;98001.72;;;13.95;62.46
22181;BME280;11256;50.830;12.834;2023-01-01T18:52:30;98007.16;;;13.95;62.50
22181;BME280;11256;50.830;12.834;2023-01-01T18:57:32;98000.06;;;13.94;62.45
22181;BME280;11256;50.830;12.834;2023-01-01T19:02:36;97998.66;;;13.96;62.44
22181;BME280;11256;50.830;12.834;2023-01-01T19:07:37;97991.91;;;13.94;62.17
22181;BME280;11256;50.830;12.834;2023-01-01T19:12:38;98001.72;;;13.95;62.48
22181;BME280;11256;50.830;12.834;2023-01-01T19:17:39;97973.00;;;13.84;62.67
22181;BME280;11256;50.830;12.834;2023-01-01T19:22:40;97994.63;;;13.94;62.68
22181;BME280;11256;50.830;12.834;2023-01-01T19:27:41;97984.13;;;13.87;62.60
22181;BME280;11256;50.830;12.834;2023-01-01T19:32:41;97979.22;;;13.84;62.71
22181;BME280;11256;50.830;12.834;2023-01-01T19:37:44;97965.47;;;13.76;62.90
22181;BME280;11256;50.830;12.834;2023-01-01T19:42:44;97967.16;;;13.72;63.02
22181;BME280;11256;50.830;12.834;2023-01-01T19:47:45;97969.28;;;13.75;62.95
22181;BME280;11256;50.830;12.834;2023-01-01T19:52:45;97969.66;;;13.68;63.12
22181;BME280;11256;50.830;12.834;2023-01-01T19:57:46;97957.06;;;13.54;62.84
22181;BME280;11256;50.830;12.834;2023-01-01T20:02:46;97963.00;;;13.56;62.71
22181;BME280;11256;50.830;12.834;2023-01-01T20:07:48;97950.06;;;13.48;62.80
22181;BME280;11256;50.830;12.834;2023-01-01T20:12:48;97944.91;;;13.46;62.79
22181;BME280;11256;50.830;12.834;2023-01-01T20:17:49;97933.56;;;13.39;62.99
22181;BME280;11256;50.830;12.834;2023-01-01T20:22:50;97925.69;;;13.38;63.16
22181;BME280;11256;50.830;12.834;2023-01-01T20:27:50;97929.97;;;13.44;63.23
22181;BME280;11256;50.830;12.834;2023-01-01T20:33:09;97926.22;;;13.40;63.13
22181;BME280;11256;50.830;12.834;2023-01-01T20:38:10;97920.00;;;13.34;63.23
22181;BME280;11256;50.830;12.834;2023-01-01T20:43:10;97909.94;;;13.35;63.40
22181;BME280;11256;50.830;12.834;2023-01-01T20:48:10;97903.47;;;13.31;63.38
22181;BME280;11256;50.830;12.834;2023-01-01T20:53:10;97903.03;;;13.24;62.76
22181;BME280;11256;50.830;12.834;2023-01-01T20:58:13;97899.97;;;13.25;63.37
22181;BME280;11256;50.830;12.834;2023-01-01T21:03:14;97910.88;;;13.25;63.64
22181;BME280;11256;50.830;12.834;2023-01-01T21:08:14;97895.38;;;13.26;63.67
22181;BME280;11256;50.830;12.834;2023-01-01T21:13:15;97899.19;;;13.25;63.77
22181;BME280;11256;50.830;12.834;2023-01-01T21:18:15;97885.66;;;13.20;63.81
22181;BME280;11256;50.830;12.834;2023-01-01T21:23:23;97859.13;;;13.07;63.75
22181;BME280;11256;50.830;12.834;2023-01-01T21:28:26;97881.81;;;13.21;63.88
22181;BME280;11256;50.830;12.834;2023-01-01T21:33:29;97857.53;;;13.06;63.70
22181;BME280;11256;50.830;12.834;2023-01-01T21:38:30;97864.00;;;13.10;63.75
22181;BME280;11256;50.830;12.834;2023-01-01T21:43:40;97851.84;;;13.02;63.47
22181;BME280;11256;50.830;12.834;2023-01-01T21:48:59;97853.69;;;13.07;64.05
22181;BME280;11256;50.830;12.834;2023-01-01T21:54:15;97845.91;;;13.00;63.92
22181;BME280;11256;50.830;12.834;2023-01-01T21:59:40;97860.78;;;13.08;64.08
22181;BME280;11256;50.830;12.834;2023-01-01T22:04:46;97864.13;;;13.00;63.90
22181;BME280;11256;50.830;12.834;2023-01-01T22:09:48;97853.84;;;12.97;63.87
22181;BME280;11256;50.830;12.834;2023-01-01T22:14:50;97858.22;;;12.93;63.78
22181;BME280;11256;50.830;12.834;2023-01-01T22:19:53;97843.41;;;12.80;64.07
22181;BME280;11256;50.830;12.834;2023-01-01T22:24:56;97837.78;;;12.72;63.79
22181;BME280;11256;50.830;12.834;2023-01-01T22:30:23;97850.56;;;12.71;63.66
22181;BME280;11256;50.830;12.834;2023-01-01T22:35:31;97820.03;;;12.56;64.08
22181;BME280;11256;50.830;12.834;2023-01-01T22:40:36;97829.28;;;12.55;64.08
22181;BME280;11256;50.830;12.834;2023-01-01T22:45:41;97815.94;;;12.58;64.13
22181;BME280;11256;50.830;12.834;2023-01-01T22:50:43;97819.91;;;12.66;64.38
22181;BME280;11256;50.830;12.834;2023-01-01T22:55:44;97792.28;;;12.59;64.33
22181;BME280;11256;50.830;12.834;2023-01-01T23:00:45;97803.16;;;12.59;64.38
22181;BME280;11256;50.830;12.834;2023-01-01T23:05:45;97815.88;;;12.63;64.20
22181;BME280;11256;50.830;12.834;2023-01-01T23:10:45;97798.34;;;12.51;64.15
22181;BME280;11256;50.830;12.834;2023-01-01T23:15:46;97795.56;;;12.56;64.58
22181;BME280;11256;50.830;12.834;2023-01-01T23:21:04;97799.97;;;12.52;64.59
22181;BME280;11256;50.830;12.834;2023-01-01T23:26:07;97789.78;;;12.39;64.56
22181;BME280;11256;50.830;12.834;2023-01-01T23:31:10;97794.13;;;12.40;64.41
22181;BME280;11256;50.830;12.834;2023-01-01T23:36:11;97786.03;;;12.35;64.54
22181;BME280;11256;50.830;12.834;2023-01-01T23:41:12;97791.41;;;12.40;64.35
22181;BME280;11256;50.830;12.834;2023-01-01T23:46:13;97768.09;;;12.34;64.74
22181;BME280;11256;50.830;12.834;2023-01-01T23:51:17;97775.94;;;12.40;64.74
22181;BME280;11256;50.830;12.834;2023-01-01T23:56:17;97770.81;;;12.34;64.85
